首页
METAR-TAF:

METAR-TAF

机场 :

黃刀鎮, 西北特區, 加拿大

纬度: 62-28N, 经度: 114-27W, 海拔: 205米

当前天气观测

该预报发布于46分钟前的08:00 UTC
风速6节,风向东转东北
温度 -29°C
湿度 68%
气压 1040 hPa
能見度: 24.1公里
少量云层高于8000英尺
散云层高于11000英尺

METAR: CYZF 170800Z 06006KT 15SM FEW080 SCT110 M29/M33 A3071 RMK AC2AC2 SLP436

时间: 01:46 (08:46 UTC)

预报

该预报发布于3小时和8分钟前的05:38 UTC
预报有效从17日的 06点(UTC)到 18日的 06点(UTC)
风速6节,风向东转东北
能見度: 10公里
散云层高于1200英尺
散云层高于10000英尺
短暂存在
从 17日的 06点(UTC)到 17日的 12点(UTC)
多云层高于1200英尺
阴天层高于8000英尺
从 17日的 1200点(UTC)
风速6节,风向东转东北
能見度: 10公里
散云层高于1200英尺
散云层高于7000英尺
散云层高于20000英尺
成为
从 17日的 19点(UTC)到 17日的 21点(UTC)
风速8节,风向东南

TAF: CYZF 170538Z 1706/1806 06006KT P6SM SCT012 SCT100 TEMPO 1706/1712 BKN012 OVC080 FM171200 06006KT P6SM SCT012 SCT070 SCT200 BECMG 1719/1721 14008KT RMK NXT FCST BY 171200Z

超过4000个机场的气象观测和天气预报(METAR&TAF报告)。

可查询的气象台以黄色和红色小点在地图上表示。

将鼠标移到小点上方,可查看气象台名称。

然后点击查看天气观测和预报。

如需切换地图:点击带黑十字的绿色按钮放大地图;点击带横线的绿色按钮缩小地图;或者点击绿色箭头查看邻近地区的地图。


METAR-TAF: